sensor_id;sensor_type;location;lat;lon;timestamp;pressure;altitude;pressure_sealevel;temperature;humidity
70304;BME280;57712;48.752;11.348;2022-12-07T00:01:26;97483.53;;;3.32;100.00
70304;BME280;57712;48.752;11.348;2022-12-07T00:03:54;97488.16;;;3.28;100.00
70304;BME280;57712;48.752;11.348;2022-12-07T00:06:23;97488.06;;;3.21;100.00
70304;BME280;57712;48.752;11.348;2022-12-07T00:08:49;97481.84;;;3.17;100.00
70304;BME280;57712;48.752;11.348;2022-12-07T00:11:21;97481.09;;;3.20;100.00
70304;BME280;57712;48.752;11.348;2022-12-07T00:13:51;97479.69;;;3.33;100.00
70304;BME280;57712;48.752;11.348;2022-12-07T00:16:20;97483.69;;;3.09;100.00
70304;BME280;57712;48.752;11.348;2022-12-07T00:18:47;97480.94;;;3.06;100.00
70304;BME280;57712;48.752;11.348;2022-12-07T00:21:17;97483.41;;;3.18;100.00
70304;BME280;57712;48.752;11.348;2022-12-07T00:23:45;97478.69;;;3.11;100.00
70304;BME280;57712;48.752;11.348;2022-12-07T00:26:18;97468.56;;;3.05;100.00
70304;BME280;57712;48.752;11.348;2022-12-07T00:28:47;97472.94;;;3.13;100.00
70304;BME280;57712;48.752;11.348;2022-12-07T00:31:15;97470.22;;;3.13;100.00
70304;BME280;57712;48.752;11.348;2022-12-07T00:33:43;97470.66;;;2.85;100.00
70304;BME280;57712;48.752;11.348;2022-12-07T00:36:12;97483.13;;;2.93;100.00
70304;BME280;57712;48.752;11.348;2022-12-07T00:38:40;97478.41;;;2.86;100.00
70304;BME280;57712;48.752;11.348;2022-12-07T00:43:36;97485.47;;;2.95;100.00
70304;BME280;57712;48.752;11.348;2022-12-07T00:46:03;97475.66;;;2.83;100.00
70304;BME280;57712;48.752;11.348;2022-12-07T00:48:29;97473.75;;;2.83;100.00
70304;BME280;57712;48.752;11.348;2022-12-07T00:50:56;97473.91;;;2.98;100.00
70304;BME280;57712;48.752;11.348;2022-12-07T00:53:23;97470.03;;;2.99;100.00
70304;BME280;57712;48.752;11.348;2022-12-07T00:55:50;97476.44;;;2.83;100.00
70304;BME280;57712;48.752;11.348;2022-12-07T00:58:16;97482.09;;;2.71;100.00
70304;BME280;57712;48.752;11.348;2022-12-07T01:00:43;97485.25;;;2.77;100.00
70304;BME280;57712;48.752;11.348;2022-12-07T01:03:12;97482.91;;;2.75;100.00
70304;BME280;57712;48.752;11.348;2022-12-07T01:05:39;97482.16;;;2.78;100.00
70304;BME280;57712;48.752;11.348;2022-12-07T01:08:06;97486.75;;;2.74;100.00
70304;BME280;57712;48.752;11.348;2022-12-07T01:10:33;97492.97;;;2.78;100.00
70304;BME280;57712;48.752;11.348;2022-12-07T01:12:59;97482.50;;;2.73;100.00
70304;BME280;57712;48.752;11.348;2022-12-07T01:15:26;97495.19;;;2.69;100.00
70304;BME280;57712;48.752;11.348;2022-12-07T01:17:53;97491.66;;;2.65;100.00
70304;BME280;57712;48.752;11.348;2022-12-07T01:20:21;97486.78;;;2.78;100.00
70304;BME280;57712;48.752;11.348;2022-12-07T01:22:47;97494.81;;;2.71;100.00
70304;BME280;57712;48.752;11.348;2022-12-07T01:25:14;97492.59;;;2.80;100.00
70304;BME280;57712;48.752;11.348;2022-12-07T01:27:40;97490.66;;;2.77;100.00
70304;BME280;57712;48.752;11.348;2022-12-07T01:30:07;97493.19;;;2.93;100.00
70304;BME280;57712;48.752;11.348;2022-12-07T01:32:34;97480.88;;;2.99;100.00
70304;BME280;57712;48.752;11.348;2022-12-07T01:35:00;97487.50;;;3.05;100.00
70304;BME280;57712;48.752;11.348;2022-12-07T01:37:27;97487.94;;;3.10;100.00
70304;BME280;57712;48.752;11.348;2022-12-07T01:39:53;97480.94;;;3.06;100.00
70304;BME280;57712;48.752;11.348;2022-12-07T01:42:20;97479.66;;;2.93;100.00
70304;BME280;57712;48.752;11.348;2022-12-07T01:47:43;97495.38;;;2.83;100.00
70304;BME280;57712;48.752;11.348;2022-12-07T01:50:10;97489.97;;;2.83;100.00
70304;BME280;57712;48.752;11.348;2022-12-07T01:52:37;97493.63;;;2.68;100.00
70304;BME280;57712;48.752;11.348;2022-12-07T01:55:12;97493.56;;;2.61;100.00
70304;BME280;57712;48.752;11.348;2022-12-07T01:57:42;97491.94;;;2.56;100.00
70304;BME280;57712;48.752;11.348;2022-12-07T02:00:10;97485.38;;;2.57;100.00
70304;BME280;57712;48.752;11.348;2022-12-07T02:02:43;97488.91;;;2.62;100.00
70304;BME280;57712;48.752;11.348;2022-12-07T02:05:10;97489.63;;;2.58;100.00
70304;BME280;57712;48.752;11.348;2022-12-07T02:07:38;97484.28;;;2.62;100.00
70304;BME280;57712;48.752;11.348;2022-12-07T02:12:39;97488.16;;;2.61;100.00
70304;BME280;57712;48.752;11.348;2022-12-07T02:15:07;97487.28;;;2.57;100.00
70304;BME280;57712;48.752;11.348;2022-12-07T02:28:31;97484.09;;;2.48;100.00
70304;BME280;57712;48.752;11.348;2022-12-07T02:31:12;97480.22;;;2.49;100.00
70304;BME280;57712;48.752;11.348;2022-12-07T02:33:49;97479.53;;;2.52;100.00
70304;BME280;57712;48.752;11.348;2022-12-07T02:36:22;97478.75;;;2.51;100.00
70304;BME280;57712;48.752;11.348;2022-12-07T02:39:03;97487.53;;;2.45;100.00
70304;BME280;57712;48.752;11.348;2022-12-07T02:41:36;97476.47;;;2.57;100.00
70304;BME280;57712;48.752;11.348;2022-12-07T02:44:07;97483.50;;;2.62;100.00
70304;BME280;57712;48.752;11.348;2022-12-07T02:46:45;97485.22;;;2.47;100.00
70304;BME280;57712;48.752;11.348;2022-12-07T02:49:13;97479.56;;;2.55;100.00
70304;BME280;57712;48.752;11.348;2022-12-07T02:51:42;97470.97;;;2.50;100.00
70304;BME280;57712;48.752;11.348;2022-12-07T02:54:12;97468.91;;;2.40;100.00
70304;BME280;57712;48.752;11.348;2022-12-07T02:59:39;97470.34;;;2.60;100.00
70304;BME280;57712;48.752;11.348;2022-12-07T03:05:15;97471.06;;;2.57;100.00
70304;BME280;57712;48.752;11.348;2022-12-07T03:10:54;97460.09;;;2.43;100.00
70304;BME280;57712;48.752;11.348;2022-12-07T03:13:33;97457.94;;;2.55;100.00
70304;BME280;57712;48.752;11.348;2022-12-07T03:16:22;97454.34;;;2.48;100.00
70304;BME280;57712;48.752;11.348;2022-12-07T03:19:15;97456.63;;;2.46;100.00
70304;BME280;57712;48.752;11.348;2022-12-07T03:21:54;97456.59;;;2.42;100.00
70304;BME280;57712;48.752;11.348;2022-12-07T03:24:28;97450.94;;;2.51;100.00
70304;BME280;57712;48.752;11.348;2022-12-07T03:27:01;97450.22;;;2.57;100.00
70304;BME280;57712;48.752;11.348;2022-12-07T03:29:35;97458.56;;;2.45;100.00
70304;BME280;57712;48.752;11.348;2022-12-07T03:32:14;97458.09;;;2.40;100.00
70304;BME280;57712;48.752;11.348;2022-12-07T03:34:57;97464.00;;;2.49;100.00
70304;BME280;57712;48.752;11.348;2022-12-07T03:37:38;97454.69;;;2.43;100.00
70304;BME280;57712;48.752;11.348;2022-12-07T03:40:16;97455.59;;;2.54;100.00
70304;BME280;57712;48.752;11.348;2022-12-07T03:42:44;97451.72;;;2.51;100.00
70304;BME280;57712;48.752;11.348;2022-12-07T03:45:12;97461.41;;;2.56;100.00
70304;BME280;57712;48.752;11.348;2022-12-07T03:47:47;97467.31;;;2.35;100.00
70304;BME280;57712;48.752;11.348;2022-12-07T03:50:28;97461.22;;;2.42;100.00
70304;BME280;57712;48.752;11.348;2022-12-07T03:53:08;97458.59;;;2.49;100.00
70304;BME280;57712;48.752;11.348;2022-12-07T03:55:40;97451.59;;;2.74;100.00
70304;BME280;57712;48.752;11.348;2022-12-07T03:58:11;97450.53;;;2.82;100.00
70304;BME280;57712;48.752;11.348;2022-12-07T04:00:40;97458.06;;;2.66;100.00
70304;BME280;57712;48.752;11.348;2022-12-07T04:03:07;97462.66;;;2.62;100.00
70304;BME280;57712;48.752;11.348;2022-12-07T04:05:34;97459.44;;;2.53;100.00
70304;BME280;57712;48.752;11.348;2022-12-07T04:08:01;97451.88;;;2.66;100.00
70304;BME280;57712;48.752;11.348;2022-12-07T04:10:28;97459.63;;;2.67;100.00
70304;BME280;57712;48.752;11.348;2022-12-07T04:12:55;97455.72;;;2.65;100.00
70304;BME280;57712;48.752;11.348;2022-12-07T04:15:22;97454.94;;;2.64;100.00
70304;BME280;57712;48.752;11.348;2022-12-07T04:17:48;97445.34;;;2.70;100.00
70304;BME280;57712;48.752;11.348;2022-12-07T04:20:15;97443.22;;;2.53;100.00
70304;BME280;57712;48.752;11.348;2022-12-07T04:22:42;97438.47;;;2.43;100.00
70304;BME280;57712;48.752;11.348;2022-12-07T04:25:08;97451.13;;;2.39;100.00
70304;BME280;57712;48.752;11.348;2022-12-07T04:27:35;97448.44;;;2.39;100.00
70304;BME280;57712;48.752;11.348;2022-12-07T04:30:02;97443.03;;;2.39;100.00
70304;BME280;57712;48.752;11.348;2022-12-07T04:32:29;97446.88;;;2.38;100.00
70304;BME280;57712;48.752;11.348;2022-12-07T04:34:56;97448.88;;;2.41;100.00
70304;BME280;57712;48.752;11.348;2022-12-07T04:37:22;97450.53;;;2.22;100.00
70304;BME280;57712;48.752;11.348;2022-12-07T04:39:49;97456.69;;;2.19;100.00
70304;BME280;57712;48.752;11.348;2022-12-07T04:42:16;97453.59;;;2.21;100.00
70304;BME280;57712;48.752;11.348;2022-12-07T04:44:42;97442.31;;;2.15;100.00
70304;BME280;57712;48.752;11.348;2022-12-07T04:47:08;97444.34;;;2.22;100.00
70304;BME280;57712;48.752;11.348;2022-12-07T04:49:35;97447.44;;;2.20;100.00
70304;BME280;57712;48.752;11.348;2022-12-07T04:52:01;97438.44;;;2.13;100.00
70304;BME280;57712;48.752;11.348;2022-12-07T04:54:28;97440.41;;;2.16;100.00
70304;BME280;57712;48.752;11.348;2022-12-07T04:56:55;97433.91;;;1.94;100.00
70304;BME280;57712;48.752;11.348;2022-12-07T04:59:21;97435.47;;;1.95;100.00
70304;BME280;57712;48.752;11.348;2022-12-07T05:01:48;97428.31;;;1.80;100.00
70304;BME280;57712;48.752;11.348;2022-12-07T05:04:14;97427.53;;;1.79;100.00
70304;BME280;57712;48.752;11.348;2022-12-07T05:06:42;97429.34;;;1.71;100.00
70304;BME280;57712;48.752;11.348;2022-12-07T05:09:09;97428.91;;;1.69;100.00
70304;BME280;57712;48.752;11.348;2022-12-07T05:11:36;97428.91;;;1.69;100.00
70304;BME280;57712;48.752;11.348;2022-12-07T05:14:15;97418.03;;;1.66;100.00
70304;BME280;57712;48.752;11.348;2022-12-07T05:16:43;97419.06;;;1.81;100.00
70304;BME280;57712;48.752;11.348;2022-12-07T05:19:10;97416.44;;;1.61;100.00
70304;BME280;57712;48.752;11.348;2022-12-07T05:21:38;97417.19;;;1.58;100.00
70304;BME280;57712;48.752;11.348;2022-12-07T05:24:05;97418.31;;;1.57;100.00
70304;BME280;57712;48.752;11.348;2022-12-07T05:26:32;97416.31;;;1.54;100.00
70304;BME280;57712;48.752;11.348;2022-12-07T05:28:59;97409.38;;;1.53;100.00
70304;BME280;57712;48.752;11.348;2022-12-07T05:31:27;97405.88;;;1.53;100.00
70304;BME280;57712;48.752;11.348;2022-12-07T05:33:54;97398.38;;;1.65;100.00
70304;BME280;57712;48.752;11.348;2022-12-07T05:36:21;97384.16;;;1.68;100.00
70304;BME280;57712;48.752;11.348;2022-12-07T05:38:47;97395.59;;;1.58;100.00
70304;BME280;57712;48.752;11.348;2022-12-07T05:41:16;97396.03;;;1.37;100.00
70304;BME280;57712;48.752;11.348;2022-12-07T05:44:02;97397.31;;;1.24;100.00
70304;BME280;57712;48.752;11.348;2022-12-07T05:46:28;97407.22;;;1.17;100.00
70304;BME280;57712;48.752;11.348;2022-12-07T05:48:55;97404.22;;;1.22;100.00
70304;BME280;57712;48.752;11.348;2022-12-07T05:51:21;97399.50;;;1.15;100.00
70304;BME280;57712;48.752;11.348;2022-12-07T05:53:48;97403.97;;;1.07;100.00
70304;BME280;57712;48.752;11.348;2022-12-07T05:56:14;97408.25;;;1.08;100.00
70304;BME280;57712;48.752;11.348;2022-12-07T05:58:41;97403.84;;;1.00;100.00
70304;BME280;57712;48.752;11.348;2022-12-07T06:01:26;97402.34;;;1.03;100.00
70304;BME280;57712;48.752;11.348;2022-12-07T06:03:53;97409.25;;;1.00;100.00
70304;BME280;57712;48.752;11.348;2022-12-07T06:06:19;97403.84;;;1.00;100.00
70304;BME280;57712;48.752;11.348;2022-12-07T06:08:46;97397.63;;;0.96;100.00
70304;BME280;57712;48.752;11.348;2022-12-07T06:11:13;97404.63;;;1.01;100.00
70304;BME280;57712;48.752;11.348;2022-12-07T06:13:57;97399.97;;;0.98;100.00
70304;BME280;57712;48.752;11.348;2022-12-07T06:16:24;97397.06;;;0.87;100.00
70304;BME280;57712;48.752;11.348;2022-12-07T06:18:51;97403.59;;;0.86;100.00
70304;BME280;57712;48.752;11.348;2022-12-07T06:21:17;97398.63;;;0.88;100.00
70304;BME280;57712;48.752;11.348;2022-12-07T06:23:43;97405.88;;;0.84;100.00
70304;BME280;57712;48.752;11.348;2022-12-07T06:26:10;97405.44;;;0.82;100.00
70304;BME280;57712;48.752;11.348;2022-12-07T06:28:36;97416.88;;;0.75;100.00
70304;BME280;57712;48.752;11.348;2022-12-07T06:31:03;97414.09;;;0.72;100.00
70304;BME280;57712;48.752;11.348;2022-12-07T06:33:36;97413.25;;;0.68;100.00
70304;BME280;57712;48.752;11.348;2022-12-07T06:36:04;97418.81;;;0.55;100.00
70304;BME280;57712;48.752;11.348;2022-12-07T06:38:31;97425.31;;;0.54;100.00
70304;BME280;57712;48.752;11.348;2022-12-07T06:40:58;97424.25;;;0.40;100.00
70304;BME280;57712;48.752;11.348;2022-12-07T06:43:24;97433.41;;;0.35;100.00
70304;BME280;57712;48.752;11.348;2022-12-07T06:45:51;97446.50;;;0.37;100.00
70304;BME280;57712;48.752;11.348;2022-12-07T06:48:17;97449.97;;;0.37;100.00
70304;BME280;57712;48.752;11.348;2022-12-07T06:50:45;97448.00;;;0.34;100.00
70304;BME280;57712;48.752;11.348;2022-12-07T06:53:19;97452.59;;;0.34;100.00
70304;BME280;57712;48.752;11.348;2022-12-07T06:55:46;97460.34;;;0.35;100.00
70304;BME280;57712;48.752;11.348;2022-12-07T06:58:12;97458.06;;;0.37;100.00
70304;BME280;57712;48.752;11.348;2022-12-07T07:00:39;97448.13;;;0.41;100.00
70304;BME280;57712;48.752;11.348;2022-12-07T07:03:05;97461.88;;;0.36;100.00
70304;BME280;57712;48.752;11.348;2022-12-07T07:05:32;97455.09;;;0.42;100.00
70304;BME280;57712;48.752;11.348;2022-12-07T07:07:59;97457.25;;;0.52;100.00
70304;BME280;57712;48.752;11.348;2022-12-07T07:10:45;97462.19;;;0.50;100.00
70304;BME280;57712;48.752;11.348;2022-12-07T07:13:13;97466.88;;;0.53;100.00
70304;BME280;57712;48.752;11.348;2022-12-07T07:15:39;97463.06;;;0.54;100.00
70304;BME280;57712;48.752;11.348;2022-12-07T07:18:06;97468.44;;;0.54;100.00
70304;BME280;57712;48.752;11.348;2022-12-07T07:20:33;97473.84;;;0.54;100.00
70304;BME280;57712;48.752;11.348;2022-12-07T07:23:00;97470.16;;;0.63;100.00
70304;BME280;57712;48.752;11.348;2022-12-07T07:25:26;97469.03;;;0.64;100.00
70304;BME280;57712;48.752;11.348;2022-12-07T07:27:53;97472.97;;;0.70;100.00
70304;BME280;57712;48.752;11.348;2022-12-07T07:30:20;97474.38;;;0.83;100.00
70304;BME280;57712;48.752;11.348;2022-12-07T07:32:46;97474.53;;;0.90;100.00
70304;BME280;57712;48.752;11.348;2022-12-07T07:35:13;97475.31;;;0.91;100.00
70304;BME280;57712;48.752;11.348;2022-12-07T07:37:40;97475.94;;;1.03;100.00
70304;BME280;57712;48.752;11.348;2022-12-07T07:40:08;97481.19;;;1.15;100.00
70304;BME280;57712;48.752;11.348;2022-12-07T07:42:36;97473.72;;;1.28;100.00
70304;BME280;57712;48.752;11.348;2022-12-07T07:45:02;97472.41;;;1.41;100.00
70304;BME280;57712;48.752;11.348;2022-12-07T07:47:29;97480.28;;;1.50;100.00
70304;BME280;57712;48.752;11.348;2022-12-07T07:49:56;97480.03;;;1.59;100.00
70304;BME280;57712;48.752;11.348;2022-12-07T07:52:23;97483.13;;;1.84;100.00
70304;BME280;57712;48.752;11.348;2022-12-07T07:54:49;97485.97;;;2.17;100.00
70304;BME280;57712;48.752;11.348;2022-12-07T07:57:17;97483.41;;;2.28;100.00
70304;BME280;57712;48.752;11.348;2022-12-07T07:59:43;97483.25;;;2.44;100.00
70304;BME280;57712;48.752;11.348;2022-12-07T08:02:14;97481.25;;;2.67;100.00
70304;BME280;57712;48.752;11.348;2022-12-07T08:04:41;97474.94;;;2.89;100.00
70304;BME280;57712;48.752;11.348;2022-12-07T08:07:07;97474.63;;;2.95;100.00
70304;BME280;57712;48.752;11.348;2022-12-07T08:09:34;97485.06;;;2.93;100.00
70304;BME280;57712;48.752;11.348;2022-12-07T08:12:00;97487.75;;;2.93;100.00
70304;BME280;57712;48.752;11.348;2022-12-07T08:14:27;97499.31;;;2.89;100.00
70304;BME280;57712;48.752;11.348;2022-12-07T08:16:55;97488.50;;;3.23;100.00
70304;BME280;57712;48.752;11.348;2022-12-07T08:19:22;97490.66;;;3.44;100.00
70304;BME280;57712;48.752;11.348;2022-12-07T08:21:48;97491.63;;;3.29;100.00
70304;BME280;57712;48.752;11.348;2022-12-07T08:24:15;97496.66;;;3.27;100.00
70304;BME280;57712;48.752;11.348;2022-12-07T08:26:41;97497.00;;;2.92;100.00
70304;BME280;57712;48.752;11.348;2022-12-07T08:29:08;97495.88;;;2.93;100.00
70304;BME280;57712;48.752;11.348;2022-12-07T08:31:35;97505.03;;;2.84;100.00
70304;BME280;57712;48.752;11.348;2022-12-07T08:34:02;97501.59;;;2.87;100.00
70304;BME280;57712;48.752;11.348;2022-12-07T08:36:29;97497.44;;;2.94;100.00
70304;BME280;57712;48.752;11.348;2022-12-07T08:38:55;97497.59;;;3.08;100.00
70304;BME280;57712;48.752;11.348;2022-12-07T08:41:42;97500.78;;;2.83;100.00
70304;BME280;57712;48.752;11.348;2022-12-07T08:44:08;97499.91;;;2.76;100.00
70304;BME280;57712;48.752;11.348;2022-12-07T08:46:38;97496.16;;;2.84;100.00
70304;BME280;57712;48.752;11.348;2022-12-07T08:49:11;97500.00;;;2.83;100.00
70304;BME280;57712;48.752;11.348;2022-12-07T08:51:39;97499.94;;;2.79;100.00
70304;BME280;57712;48.752;11.348;2022-12-07T08:54:10;97498.38;;;2.78;100.00
70304;BME280;57712;48.752;11.348;2022-12-07T08:56:37;97493.19;;;2.93;100.00
70304;BME280;57712;48.752;11.348;2022-12-07T08:59:05;97491.59;;;2.92;100.00
70304;BME280;57712;48.752;11.348;2022-12-07T09:01:32;97497.69;;;2.81;100.00
70304;BME280;57712;48.752;11.348;2022-12-07T09:03:59;97497.75;;;2.88;100.00
70304;BME280;57712;48.752;11.348;2022-12-07T09:06:26;97499.41;;;2.67;100.00
70304;BME280;57712;48.752;11.348;2022-12-07T09:08:55;97506.78;;;2.70;100.00
70304;BME280;57712;48.752;11.348;2022-12-07T09:11:24;97499.53;;;3.07;100.00
70304;BME280;57712;48.752;11.348;2022-12-07T09:13:54;97501.09;;;3.12;100.00
70304;BME280;57712;48.752;11.348;2022-12-07T09:16:21;97493.25;;;3.00;100.00
70304;BME280;57712;48.752;11.348;2022-12-07T09:18:47;97488.59;;;3.00;100.00
70304;BME280;57712;48.752;11.348;2022-12-07T09:21:14;97493.34;;;3.07;100.00
70304;BME280;57712;48.752;11.348;2022-12-07T09:23:41;97488.56;;;2.97;100.00
70304;BME280;57712;48.752;11.348;2022-12-07T09:26:09;97491.94;;;2.86;100.00
70304;BME280;57712;48.752;11.348;2022-12-07T09:28:36;97488.56;;;2.97;100.00
70304;BME280;57712;48.752;11.348;2022-12-07T09:31:04;97496.28;;;2.95;100.00
70304;BME280;57712;48.752;11.348;2022-12-07T09:33:55;97498.34;;;3.05;100.00
70304;BME280;57712;48.752;11.348;2022-12-07T09:36:22;97491.03;;;3.09;100.00
70304;BME280;57712;48.752;11.348;2022-12-07T09:38:49;97494.03;;;3.00;100.00
70304;BME280;57712;48.752;11.348;2022-12-07T09:41:16;97489.56;;;3.15;100.00
70304;BME280;57712;48.752;11.348;2022-12-07T09:43:43;97487.13;;;3.03;100.00
70304;BME280;57712;48.752;11.348;2022-12-07T09:46:15;97473.06;;;3.27;100.00
70304;BME280;57712;48.752;11.348;2022-12-07T09:48:44;97481.59;;;3.29;100.00
70304;BME280;57712;48.752;11.348;2022-12-07T09:51:20;97474.25;;;3.30;100.00
70304;BME280;57712;48.752;11.348;2022-12-07T09:53:52;97471.34;;;3.12;100.00
70304;BME280;57712;48.752;11.348;2022-12-07T09:56:21;97470.16;;;3.09;100.00
70304;BME280;57712;48.752;11.348;2022-12-07T09:58:48;97472.94;;;3.13;100.00
70304;BME280;57712;48.752;11.348;2022-12-07T10:01:18;97472.94;;;3.16;100.00
70304;BME280;57712;48.752;11.348;2022-12-07T10:03:55;97468.06;;;3.29;100.00
70304;BME280;57712;48.752;11.348;2022-12-07T10:06:25;97448.88;;;3.08;100.00
70304;BME280;57712;48.752;11.348;2022-12-07T10:08:51;97455.75;;;3.02;100.00
70304;BME280;57712;48.752;11.348;2022-12-07T10:11:18;97442.41;;;3.16;100.00
70304;BME280;57712;48.752;11.348;2022-12-07T10:13:51;97457.88;;;3.15;100.00
70304;BME280;57712;48.752;11.348;2022-12-07T10:18:50;97451.94;;;3.43;100.00
70304;BME280;57712;48.752;11.348;2022-12-07T10:21:26;97449.66;;;3.45;100.00
70304;BME280;57712;48.752;11.348;2022-12-07T10:24:05;97452.66;;;3.81;100.00
70304;BME280;57712;48.752;11.348;2022-12-07T10:26:40;97444.34;;;3.60;100.00
70304;BME280;57712;48.752;11.348;2022-12-07T10:29:42;97446.38;;;3.70;100.00
70304;BME280;57712;48.752;11.348;2022-12-07T10:34:40;97438.63;;;3.68;100.00
70304;BME280;57712;48.752;11.348;2022-12-07T10:42:29;97436.06;;;3.86;100.00
70304;BME280;57712;48.752;11.348;2022-12-07T10:47:39;97436.84;;;3.87;100.00
70304;BME280;57712;48.752;11.348;2022-12-07T10:53:28;97432.22;;;3.91;100.00
70304;BME280;57712;48.752;11.348;2022-12-07T10:56:05;97429.28;;;4.14;100.00
70304;BME280;57712;48.752;11.348;2022-12-07T11:01:41;97422.28;;;4.09;100.00
70304;BME280;57712;48.752;11.348;2022-12-07T11:04:34;97423.00;;;4.02;100.00
70304;BME280;57712;48.752;11.348;2022-12-07T11:07:14;97412.28;;;4.24;100.00
70304;BME280;57712;48.752;11.348;2022-12-07T11:12:49;97410.63;;;4.01;100.00
70304;BME280;57712;48.752;11.348;2022-12-07T11:15:26;97406.69;;;3.95;100.00
70304;BME280;57712;48.752;11.348;2022-12-07T11:18:06;97409.00;;;3.90;100.00
70304;BME280;57712;48.752;11.348;2022-12-07T11:20:39;97404.97;;;3.66;100.00
70304;BME280;57712;48.752;11.348;2022-12-07T11:26:07;97393.75;;;3.71;100.00
70304;BME280;57712;48.752;11.348;2022-12-07T11:31:32;97394.06;;;3.62;100.00
70304;BME280;57712;48.752;11.348;2022-12-07T11:34:10;97396.88;;;3.73;100.00
70304;BME280;57712;48.752;11.348;2022-12-07T11:36:43;97394.28;;;3.87;100.00
70304;BME280;57712;48.752;11.348;2022-12-07T11:39:29;97388.59;;;4.10;100.00
70304;BME280;57712;48.752;11.348;2022-12-07T11:42:06;97386.22;;;4.05;100.00
70304;BME280;57712;48.752;11.348;2022-12-07T11:50:25;97386.59;;;4.00;100.00
70304;BME280;57712;48.752;11.348;2022-12-07T11:58:27;97381.81;;;3.75;100.00
70304;BME280;57712;48.752;11.348;2022-12-07T12:06:44;97368.38;;;3.93;100.00
70304;BME280;57712;48.752;11.348;2022-12-07T12:09:15;97368.03;;;3.98;100.00
70304;BME280;57712;48.752;11.348;2022-12-07T12:18:11;97364.97;;;4.11;100.00
70304;BME280;57712;48.752;11.348;2022-12-07T12:21:07;97367.25;;;4.01;100.00
70304;BME280;57712;48.752;11.348;2022-12-07T12:23:41;97367.19;;;3.94;100.00
70304;BME280;57712;48.752;11.348;2022-12-07T12:26:20;97364.94;;;4.03;100.00
70304;BME280;57712;48.752;11.348;2022-12-07T12:28:58;97366.50;;;4.04;100.00
70304;BME280;57712;48.752;11.348;2022-12-07T12:31:38;97359.59;;;4.18;100.00
70304;BME280;57712;48.752;11.348;2022-12-07T12:34:31;97360.28;;;4.00;100.00
70304;BME280;57712;48.752;11.348;2022-12-07T12:36:58;97362.59;;;3.98;100.00
70304;BME280;57712;48.752;11.348;2022-12-07T12:39:24;97368.03;;;4.05;100.00
70304;BME280;57712;48.752;11.348;2022-12-07T12:41:54;97363.09;;;4.22;100.00
70304;BME280;57712;48.752;11.348;2022-12-07T12:47:00;97364.59;;;4.16;100.00
70304;BME280;57712;48.752;11.348;2022-12-07T12:51:56;97361.13;;;4.12;100.00
70304;BME280;57712;48.752;11.348;2022-12-07T12:54:32;97358.78;;;4.07;100.00
70304;BME280;57712;48.752;11.348;2022-12-07T12:57:19;97348.72;;;4.11;100.00
70304;BME280;57712;48.752;11.348;2022-12-07T13:02:47;97339.19;;;4.42;100.00
70304;BME280;57712;48.752;11.348;2022-12-07T13:15:53;97324.72;;;4.13;100.00
70304;BME280;57712;48.752;11.348;2022-12-07T13:20:59;97320.19;;;4.38;100.00
70304;BME280;57712;48.752;11.348;2022-12-07T13:23:30;97319.34;;;4.27;100.00
70304;BME280;57712;48.752;11.348;2022-12-07T13:26:11;97317.06;;;4.29;100.00
70304;BME280;57712;48.752;11.348;2022-12-07T13:29:21;97323.66;;;4.35;100.00
70304;BME280;57712;48.752;11.348;2022-12-07T13:31:48;97316.69;;;4.38;100.00
70304;BME280;57712;48.752;11.348;2022-12-07T13:34:35;97318.63;;;4.37;100.00
70304;BME280;57712;48.752;11.348;2022-12-07T13:37:10;97317.44;;;4.31;100.00
70304;BME280;57712;48.752;11.348;2022-12-07T13:39:46;97318.72;;;4.62;100.00
70304;BME280;57712;48.752;11.348;2022-12-07T13:42:34;97309.69;;;4.33;100.00
70304;BME280;57712;48.752;11.348;2022-12-07T13:45:21;97314.81;;;4.52;100.00
70304;BME280;57712;48.752;11.348;2022-12-07T13:47:52;97308.53;;;4.30;100.00
70304;BME280;57712;48.752;11.348;2022-12-07T13:50:29;97313.16;;;4.23;100.00
70304;BME280;57712;48.752;11.348;2022-12-07T13:52:57;97311.63;;;4.32;100.00
70304;BME280;57712;48.752;11.348;2022-12-07T13:55:25;97309.34;;;4.38;100.00
70304;BME280;57712;48.752;11.348;2022-12-07T13:57:53;97308.50;;;4.20;100.00
70304;BME280;57712;48.752;11.348;2022-12-07T14:00:23;97314.69;;;4.24;100.00
70304;BME280;57712;48.752;11.348;2022-12-07T14:03:03;97310.81;;;4.18;100.00
70304;BME280;57712;48.752;11.348;2022-12-07T14:05:32;97313.94;;;4.27;100.00
70304;BME280;57712;48.752;11.348;2022-12-07T14:08:02;97311.94;;;4.17;100.00
70304;BME280;57712;48.752;11.348;2022-12-07T14:10:41;97313.19;;;4.37;100.00
70304;BME280;57712;48.752;11.348;2022-12-07T14:13:39;97310.00;;;4.14;100.00
70304;BME280;57712;48.752;11.348;2022-12-07T14:16:27;97309.28;;;4.24;100.00
70304;BME280;57712;48.752;11.348;2022-12-07T14:18:56;97311.63;;;4.29;100.00
70304;BME280;57712;48.752;11.348;2022-12-07T14:21:28;97310.41;;;4.16;100.00
70304;BME280;57712;48.752;11.348;2022-12-07T14:24:15;97318.47;;;4.05;100.00
70304;BME280;57712;48.752;11.348;2022-12-07T14:26:43;97316.25;;;4.18;100.00
70304;BME280;57712;48.752;11.348;2022-12-07T14:31:49;97310.84;;;4.28;100.00
70304;BME280;57712;48.752;11.348;2022-12-07T14:34:15;97317.03;;;4.25;100.00
70304;BME280;57712;48.752;11.348;2022-12-07T14:36:43;97311.94;;;4.17;100.00
70304;BME280;57712;48.752;11.348;2022-12-07T14:39:10;97315.03;;;4.12;100.00
70304;BME280;57712;48.752;11.348;2022-12-07T14:41:39;97311.22;;;4.20;100.00
70304;BME280;57712;48.752;11.348;2022-12-07T14:44:19;97309.28;;;4.24;100.00
70304;BME280;57712;48.752;11.348;2022-12-07T14:46:52;97306.94;;;4.22;100.00
70304;BME280;57712;48.752;11.348;2022-12-07T14:49:39;97305.00;;;4.19;100.00
70304;BME280;57712;48.752;11.348;2022-12-07T14:52:11;97305.41;;;4.21;100.00